Time;durP1;ratioP1;P1;durP2;ratioP2;P2;SDS_P1;SDS_P2;PMS_P1;PMS_P2;Temp;Humidity;BMP_temperature;BMP_pressure;BME280_temperature;BME280_humidity;BME280_pressure;Samples;Min_cycle;Max_cycle;Signal;HPM_P1;HPM_P2
2021/08/31 00:00:17;;;;;;;4.03;2.10;;;;;;;;;;5055352;28;20040;-75
2021/08/31 00:02:43;;;;;;;5.07;2.20;;;;;;;;;;5055451;28;20415;-74
2021/08/31 00:05:12;;;;;;;4.57;1.92;;;;;;;;;;5055026;28;20033;-75
2021/08/31 00:07:37;;;;;;;3.97;2.38;;;;;;;;;;5055772;28;20036;-74
2021/08/31 00:10:03;;;;;;;5.20;2.10;;;;;;;;;;5054952;28;20074;-75
2021/08/31 00:12:28;;;;;;;3.42;1.50;;;;;;;;;;5055280;28;20477;-74
2021/08/31 00:14:54;;;;;;;3.58;2.00;;;;;;;;;;5055192;28;20033;-75
2021/08/31 00:17:19;;;;;;;8.20;2.55;;;;;;;;;;5055448;28;20381;-74
2021/08/31 00:19:44;;;;;;;3.45;1.73;;;;;;;;;;5054839;28;20029;-75
2021/08/31 00:22:10;;;;;;;6.80;1.60;;;;;;;;;;5036822;28;20033;-74
2021/08/31 00:24:35;;;;;;;6.15;1.80;;;;;;;;;;5054982;28;20017;-75
2021/08/31 00:27:00;;;;;;;3.83;1.67;;;;;;;;;;5054708;28;20033;-75
2021/08/31 00:29:26;;;;;;;3.08;1.98;;;;;;;;;;5054896;28;20037;-75
2021/08/31 00:31:51;;;;;;;6.53;1.98;;;;;;;;;;5054958;28;20055;-75
2021/08/31 00:34:16;;;;;;;6.50;2.05;;;;;;;;;;5054415;28;20025;-75
2021/08/31 00:36:41;;;;;;;6.07;1.73;;;;;;;;;;5051905;28;20033;-75
2021/08/31 00:39:07;;;;;;;4.80;1.67;;;;;;;;;;5052702;28;20021;-75
2021/08/31 00:41:33;;;;;;;3.03;1.90;;;;;;;;;;5054215;28;20033;-75
2021/08/31 00:43:58;;;;;;;4.43;1.90;;;;;;;;;;5054679;28;20033;-76
2021/08/31 00:46:24;;;;;;;3.55;1.77;;;;;;;;;;5053970;28;20151;-74
2021/08/31 00:48:50;;;;;;;5.20;1.70;;;;;;;;;;5054318;28;20025;-75
2021/08/31 00:51:17;;;;;;;5.70;1.73;;;;;;;;;;5054198;28;20039;-75
2021/08/31 00:53:42;;;;;;;4.00;1.63;;;;;;;;;;5054508;28;20013;-75
2021/08/31 00:56:11;;;;;;;5.20;2.03;;;;;;;;;;5054287;28;20370;-74
2021/08/31 00:58:38;;;;;;;3.65;1.50;;;;;;;;;;5054402;28;20033;-75
2021/08/31 01:01:03;;;;;;;4.70;1.88;;;;;;;;;;5054259;28;20052;-74
2021/08/31 01:03:29;;;;;;;6.75;2.10;;;;;;;;;;5053965;28;20115;-75
2021/08/31 01:05:56;;;;;;;3.50;1.63;;;;;;;;;;5054272;28;20037;-75
2021/08/31 01:08:21;;;;;;;3.42;1.88;;;;;;;;;;5054156;28;20025;-75
2021/08/31 01:10:47;;;;;;;4.78;1.55;;;;;;;;;;5054168;28;20116;-75
2021/08/31 01:13:13;;;;;;;5.00;1.67;;;;;;;;;;5054101;28;20102;-75
2021/08/31 01:15:38;;;;;;;5.63;1.98;;;;;;;;;;5054005;28;20040;-75
2021/08/31 01:18:20;;;;;;;6.20;2.05;;;;;;;;;;5053987;28;20082;-75
2021/08/31 01:20:47;;;;;;;7.35;2.03;;;;;;;;;;5054033;28;20033;-74
2021/08/31 01:23:12;;;;;;;6.40;1.90;;;;;;;;;;5053895;28;20036;-74
2021/08/31 01:25:38;;;;;;;6.47;2.10;;;;;;;;;;5053906;28;20481;-75
2021/08/31 01:28:04;;;;;;;4.32;1.67;;;;;;;;;;5053816;28;20017;-75
2021/08/31 01:30:29;;;;;;;3.22;1.67;;;;;;;;;;5053719;28;20087;-75
2021/08/31 01:32:54;;;;;;;3.88;1.80;;;;;;;;;;5053988;28;20028;-74
2021/08/31 01:35:19;;;;;;;3.95;1.90;;;;;;;;;;5053854;28;20033;-75
2021/08/31 01:37:46;;;;;;;4.18;2.08;;;;;;;;;;5053865;28;20071;-75
2021/08/31 01:40:12;;;;;;;4.47;2.00;;;;;;;;;;5053472;28;20461;-74
2021/08/31 01:42:37;;;;;;;5.95;2.10;;;;;;;;;;5053743;28;20025;-75
2021/08/31 01:45:02;;;;;;;4.88;1.50;;;;;;;;;;5053430;28;20033;-75
2021/08/31 01:47:27;;;;;;;4.07;1.85;;;;;;;;;;5053570;28;20029;-74
2021/08/31 01:49:53;;;;;;;4.13;1.50;;;;;;;;;;5053548;28;20041;-75
2021/08/31 01:52:18;;;;;;;6.50;2.40;;;;;;;;;;5053345;28;20384;-75
2021/08/31 01:54:43;;;;;;;4.28;1.77;;;;;;;;;;5035542;28;20065;-75
2021/08/31 01:57:08;;;;;;;5.15;2.20;;;;;;;;;;5053093;28;20450;-75
2021/08/31 01:59:34;;;;;;;4.25;1.83;;;;;;;;;;5052039;28;20094;-75
2021/08/31 02:01:59;;;;;;;7.85;2.08;;;;;;;;;;5053192;28;20461;-76
2021/08/31 02:04:24;;;;;;;5.05;2.00;;;;;;;;;;5053064;28;20021;-75
2021/08/31 02:06:49;;;;;;;4.85;1.80;;;;;;;;;;5053342;28;20035;-76
2021/08/31 02:09:15;;;;;;;3.28;2.00;;;;;;;;;;5053591;28;20056;-75
2021/08/31 02:11:40;;;;;;;5.72;2.05;;;;;;;;;;5053235;28;20511;-75
2021/08/31 02:14:05;;;;;;;5.38;2.55;;;;;;;;;;5053260;28;20055;-74
2021/08/31 02:16:31;;;;;;;4.00;2.35;;;;;;;;;;5052833;28;20041;-74
2021/08/31 02:18:56;;;;;;;9.00;3.45;;;;;;;;;;5035560;28;20025;-74
2021/08/31 02:21:21;;;;;;;8.25;3.17;;;;;;;;;;5053068;28;20025;-74
2021/08/31 02:23:46;;;;;;;3.80;2.40;;;;;;;;;;5053287;28;20037;-75
2021/08/31 02:26:12;;;;;;;5.70;2.80;;;;;;;;;;5053031;28;20438;-75
2021/08/31 02:28:37;;;;;;;5.15;2.55;;;;;;;;;;5053009;28;20021;-74
2021/08/31 02:31:02;;;;;;;4.45;2.60;;;;;;;;;;5052767;28;20136;-75
2021/08/31 02:33:28;;;;;;;6.57;2.60;;;;;;;;;;5053158;28;20100;-75
2021/08/31 02:35:54;;;;;;;6.20;2.75;;;;;;;;;;5052758;28;20044;-75
2021/08/31 02:38:19;;;;;;;6.80;2.65;;;;;;;;;;5053253;28;20115;-74
2021/08/31 02:40:44;;;;;;;9.27;2.45;;;;;;;;;;5053038;28;20104;-75
2021/08/31 02:43:10;;;;;;;7.28;2.63;;;;;;;;;;5053255;28;20036;-75
2021/08/31 02:45:35;;;;;;;4.10;2.10;;;;;;;;;;5052987;28;20124;-75
2021/08/31 02:48:00;;;;;;;7.68;2.30;;;;;;;;;;5052981;28;20028;-75
2021/08/31 02:50:26;;;;;;;5.78;2.33;;;;;;;;;;5052582;28;20036;-75
2021/08/31 02:52:51;;;;;;;6.35;2.40;;;;;;;;;;5052947;28;20354;-75
2021/08/31 02:55:16;;;;;;;4.55;2.38;;;;;;;;;;5052801;28;20445;-75
2021/08/31 02:57:41;;;;;;;4.43;2.58;;;;;;;;;;5052948;28;20029;-75
2021/08/31 03:00:08;;;;;;;3.17;2.08;;;;;;;;;;5052802;28;20120;-74
2021/08/31 03:02:33;;;;;;;6.47;3.03;;;;;;;;;;5052728;28;20028;-75
2021/08/31 03:04:58;;;;;;;6.15;3.00;;;;;;;;;;5052780;28;20075;-75
2021/08/31 03:07:23;;;;;;;5.57;3.10;;;;;;;;;;5052724;28;20043;-75
2021/08/31 03:09:49;;;;;;;6.70;2.70;;;;;;;;;;5054273;28;20078;-75
2021/08/31 03:12:15;;;;;;;6.18;2.67;;;;;;;;;;5056206;28;20025;-75
2021/08/31 03:14:40;;;;;;;8.15;3.28;;;;;;;;;;5056172;28;20422;-75
2021/08/31 03:17:06;;;;;;;4.70;2.65;;;;;;;;;;5056172;28;20096;-75
2021/08/31 03:19:31;;;;;;;4.95;2.83;;;;;;;;;;5056231;28;20032;-74
2021/08/31 03:21:57;;;;;;;8.57;3.03;;;;;;;;;;5056207;28;20033;-75
2021/08/31 03:24:23;;;;;;;6.93;3.00;;;;;;;;;;5055786;28;20488;-75
2021/08/31 03:26:49;;;;;;;4.22;2.25;;;;;;;;;;5056031;28;20029;-75
2021/08/31 03:29:14;;;;;;;5.20;2.58;;;;;;;;;;5055923;28;20040;-75
2021/08/31 03:31:39;;;;;;;6.90;2.63;;;;;;;;;;5056002;28;20080;-75
2021/08/31 03:34:04;;;;;;;5.47;2.78;;;;;;;;;;5055865;28;20521;-75
2021/08/31 03:36:30;;;;;;;5.80;2.58;;;;;;;;;;5055629;28;20048;-74
2021/08/31 03:38:55;;;;;;;6.35;3.00;;;;;;;;;;5055765;28;20059;-74
2021/08/31 03:41:20;;;;;;;8.85;3.45;;;;;;;;;;5055638;28;20021;-75
2021/08/31 03:43:46;;;;;;;7.93;3.38;;;;;;;;;;5055460;28;20104;-75
2021/08/31 03:46:11;;;;;;;6.43;3.10;;;;;;;;;;5055873;28;20044;-74
2021/08/31 03:48:37;;;;;;;6.22;2.83;;;;;;;;;;5056011;28;20029;-74
2021/08/31 03:51:02;;;;;;;7.15;3.00;;;;;;;;;;5055577;28;20094;-75
2021/08/31 03:53:27;;;;;;;8.45;3.42;;;;;;;;;;5055524;28;20124;-75
2021/08/31 03:55:52;;;;;;;7.85;3.17;;;;;;;;;;5055465;28;20036;-74
2021/08/31 03:58:18;;;;;;;6.72;3.45;;;;;;;;;;5055493;28;20059;-75
2021/08/31 04:00:43;;;;;;;7.15;2.70;;;;;;;;;;5055432;28;20020;-75
2021/08/31 04:03:08;;;;;;;6.90;2.75;;;;;;;;;;5055112;28;20160;-74
2021/08/31 04:05:33;;;;;;;7.22;2.40;;;;;;;;;;5055287;28;20381;-75
2021/08/31 04:07:59;;;;;;;7.78;3.00;;;;;;;;;;5055309;28;20025;-75
2021/08/31 04:10:24;;;;;;;5.13;2.53;;;;;;;;;;5055200;28;20025;-75
2021/08/31 04:12:49;;;;;;;7.80;2.92;;;;;;;;;;5055311;28;20401;-76
2021/08/31 04:15:14;;;;;;;7.30;2.92;;;;;;;;;;5055102;28;20051;-75
2021/08/31 04:17:40;;;;;;;5.03;2.50;;;;;;;;;;5055426;28;20537;-75
2021/08/31 04:20:05;;;;;;;5.43;2.85;;;;;;;;;;5055089;28;20037;-76
2021/08/31 04:22:31;;;;;;;9.88;3.03;;;;;;;;;;5036370;28;20025;-74
2021/08/31 04:24:56;;;;;;;5.18;2.45;;;;;;;;;;5054968;28;20469;-74
2021/08/31 04:27:21;;;;;;;11.20;2.90;;;;;;;;;;5054803;28;20044;-74
2021/08/31 04:29:47;;;;;;;8.77;2.72;;;;;;;;;;5055007;28;20453;-75
2021/08/31 04:32:12;;;;;;;4.40;2.58;;;;;;;;;;5054363;28;20048;-75
2021/08/31 04:34:37;;;;;;;9.32;3.17;;;;;;;;;;5054727;28;20076;-75
2021/08/31 04:37:02;;;;;;;6.15;3.20;;;;;;;;;;5053910;28;20028;-74
2021/08/31 04:39:28;;;;;;;4.00;2.45;;;;;;;;;;5054913;28;20084;-74
2021/08/31 04:41:53;;;;;;;5.53;2.60;;;;;;;;;;5054705;28;20536;-75
2021/08/31 04:44:18;;;;;;;10.70;3.25;;;;;;;;;;5054531;28;20017;-74
2021/08/31 04:46:43;;;;;;;8.35;2.97;;;;;;;;;;5054520;28;20025;-75
2021/08/31 04:49:09;;;;;;;6.95;3.25;;;;;;;;;;5036581;28;20039;-75
2021/08/31 04:51:34;;;;;;;5.80;2.97;;;;;;;;;;5054461;28;20469;-75
2021/08/31 04:53:59;;;;;;;4.53;2.60;;;;;;;;;;5054022;28;20035;-75
2021/08/31 04:56:25;;;;;;;8.63;2.47;;;;;;;;;;5054227;28;20053;-75
2021/08/31 04:58:50;;;;;;;5.20;2.90;;;;;;;;;;5054378;28;20148;-75
2021/08/31 05:01:15;;;;;;;8.18;2.70;;;;;;;;;;5053895;28;20462;-76
2021/08/31 05:03:42;;;;;;;5.45;2.65;;;;;;;;;;5054239;28;20028;-75
2021/08/31 05:06:08;;;;;;;8.95;2.55;;;;;;;;;;5053856;28;20462;-75
2021/08/31 05:08:33;;;;;;;9.45;2.67;;;;;;;;;;5054114;28;20040;-75
2021/08/31 05:10:58;;;;;;;10.68;2.58;;;;;;;;;;5054032;28;20041;-75
2021/08/31 05:13:23;;;;;;;6.18;2.50;;;;;;;;;;5054069;28;20450;-75
2021/08/31 05:15:49;;;;;;;7.05;2.60;;;;;;;;;;5053993;28;20457;-75
2021/08/31 05:18:14;;;;;;;6.47;2.60;;;;;;;;;;5053851;28;20035;-75
2021/08/31 05:20:39;;;;;;;9.15;2.53;;;;;;;;;;5053677;28;20020;-74
2021/08/31 05:23:06;;;;;;;4.28;2.50;;;;;;;;;;5053549;28;20119;-76
2021/08/31 05:25:32;;;;;;;6.60;2.45;;;;;;;;;;5054030;28;20072;-74
2021/08/31 05:27:57;;;;;;;4.85;2.50;;;;;;;;;;5053951;28;20024;-75
2021/08/31 05:30:22;;;;;;;6.78;2.33;;;;;;;;;;5035766;28;20025;-75
2021/08/31 05:32:47;;;;;;;9.25;2.60;;;;;;;;;;5054039;28;20051;-75
2021/08/31 05:35:13;;;;;;;5.50;2.38;;;;;;;;;;5053550;28;20111;-75
2021/08/31 05:37:39;;;;;;;7.68;2.35;;;;;;;;;;5053662;28;20025;-75
2021/08/31 05:40:05;;;;;;;5.22;2.75;;;;;;;;;;5053532;28;20523;-74
2021/08/31 05:42:30;;;;;;;6.35;2.75;;;;;;;;;;5053485;28;20042;-75
2021/08/31 05:44:55;;;;;;;5.45;2.35;;;;;;;;;;5053280;28;20059;-75
2021/08/31 05:47:21;;;;;;;7.93;2.58;;;;;;;;;;5053447;28;20040;-74
2021/08/31 05:49:46;;;;;;;7.10;2.55;;;;;;;;;;5053518;28;20462;-75
2021/08/31 05:52:12;;;;;;;5.40;2.33;;;;;;;;;;5053441;28;20029;-74
2021/08/31 05:54:37;;;;;;;7.80;2.65;;;;;;;;;;5053329;28;20080;-75
2021/08/31 05:57:06;;;;;;;4.43;2.45;;;;;;;;;;5053340;28;20048;-75
2021/08/31 05:59:32;;;;;;;8.30;3.00;;;;;;;;;;5053384;28;20056;-74
2021/08/31 06:01:57;;;;;;;5.13;2.25;;;;;;;;;;5053353;28;20056;-74
2021/08/31 06:04:25;;;;;;;7.57;2.83;;;;;;;;;;5053282;28;20441;-75
2021/08/31 06:06:50;;;;;;;7.70;2.55;;;;;;;;;;5052969;28;20478;-74
2021/08/31 06:09:15;;;;;;;6.43;2.63;;;;;;;;;;5053233;28;20124;-75
2021/08/31 06:11:41;;;;;;;5.07;2.20;;;;;;;;;;5052939;28;20017;-75
2021/08/31 06:14:06;;;;;;;6.60;2.67;;;;;;;;;;5035235;28;20033;-75
2021/08/31 06:16:32;;;;;;;6.68;2.92;;;;;;;;;;5052836;28;20037;-74
2021/08/31 06:18:57;;;;;;;5.90;2.72;;;;;;;;;;5053215;28;20032;-74
2021/08/31 06:21:22;;;;;;;5.43;3.25;;;;;;;;;;5035273;28;20140;-75
2021/08/31 06:23:48;;;;;;;4.25;2.63;;;;;;;;;;5053143;28;20060;-75
2021/08/31 06:26:13;;;;;;;8.90;2.30;;;;;;;;;;5053053;28;20025;-74
2021/08/31 06:28:38;;;;;;;5.55;2.35;;;;;;;;;;5053075;28;20038;-75
2021/08/31 06:31:03;;;;;;;3.80;1.80;;;;;;;;;;5052981;28;20053;-75
2021/08/31 06:33:29;;;;;;;3.53;2.22;;;;;;;;;;5035143;28;20397;-74
2021/08/31 06:35:54;;;;;;;3.13;1.77;;;;;;;;;;5052729;28;20045;-75
2021/08/31 06:38:19;;;;;;;6.68;2.08;;;;;;;;;;5052277;28;20037;-76
2021/08/31 06:40:44;;;;;;;3.97;1.50;;;;;;;;;;5052565;28;20021;-75
2021/08/31 06:43:10;;;;;;;4.63;1.98;;;;;;;;;;5052403;28;20025;-74
2021/08/31 06:45:35;;;;;;;2.45;1.70;;;;;;;;;;5055261;28;20449;-75
2021/08/31 06:48:00;;;;;;;5.85;2.20;;;;;;;;;;5056221;28;20467;-75
2021/08/31 06:50:26;;;;;;;5.78;2.10;;;;;;;;;;5056209;28;20373;-74
2021/08/31 06:52:51;;;;;;;5.50;2.20;;;;;;;;;;5056042;28;20028;-75
2021/08/31 06:55:17;;;;;;;3.80;1.98;;;;;;;;;;5056094;28;20029;-75
2021/08/31 06:57:42;;;;;;;3.45;1.92;;;;;;;;;;5056070;28;20025;-75
2021/08/31 07:00:08;;;;;;;6.70;2.20;;;;;;;;;;5056200;28;20094;-75
2021/08/31 07:02:34;;;;;;;7.13;2.78;;;;;;;;;;5055752;28;20171;-75
2021/08/31 07:04:59;;;;;;;4.18;2.05;;;;;;;;;;5056433;28;20044;-75
2021/08/31 07:07:24;;;;;;;5.90;1.85;;;;;;;;;;5056758;28;20037;-74
2021/08/31 07:09:50;;;;;;;3.33;1.92;;;;;;;;;;5056734;28;20020;-75
2021/08/31 07:12:15;;;;;;;3.88;1.63;;;;;;;;;;5056170;28;20362;-75
2021/08/31 07:14:40;;;;;;;4.15;1.63;;;;;;;;;;5055933;28;20126;-75
2021/08/31 07:17:06;;;;;;;4.13;1.95;;;;;;;;;;5055894;28;20075;-75
2021/08/31 07:19:31;;;;;;;3.60;1.80;;;;;;;;;;5056208;28;20036;-75
2021/08/31 07:21:56;;;;;;;4.75;2.15;;;;;;;;;;5056159;28;20060;-75
2021/08/31 07:24:22;;;;;;;5.85;2.08;;;;;;;;;;5056021;28;20021;-75
2021/08/31 07:26:47;;;;;;;5.63;2.33;;;;;;;;;;5056259;28;20028;-75
2021/08/31 07:29:13;;;;;;;4.22;2.20;;;;;;;;;;5055471;28;20082;-75
2021/08/31 07:31:38;;;;;;;4.88;2.45;;;;;;;;;;5055313;28;20040;-75
2021/08/31 07:34:03;;;;;;;4.97;2.78;;;;;;;;;;5055891;28;20412;-75
2021/08/31 07:36:28;;;;;;;9.02;2.97;;;;;;;;;;5055917;28;20045;-75
2021/08/31 07:38:55;;;;;;;8.30;2.30;;;;;;;;;;5055833;28;20059;-75
2021/08/31 07:41:20;;;;;;;5.60;2.30;;;;;;;;;;5055801;28;20040;-75
2021/08/31 07:43:47;;;;;;;4.85;2.20;;;;;;;;;;5055772;28;20033;-75
2021/08/31 07:46:12;;;;;;;4.95;2.72;;;;;;;;;;5055383;28;20382;-74
2021/08/31 07:48:37;;;;;;;5.45;2.63;;;;;;;;;;5054028;28;20048;-75
2021/08/31 07:51:03;;;;;;;4.28;2.30;;;;;;;;;;5054328;28;20052;-75
2021/08/31 07:53:28;;;;;;;5.57;2.58;;;;;;;;;;5051668;28;20013;-75
2021/08/31 07:55:53;;;;;;;6.45;2.00;;;;;;;;;;5053998;28;20366;-74
2021/08/31 07:58:18;;;;;;;5.13;2.30;;;;;;;;;;5054742;28;20029;-75
2021/08/31 08:00:44;;;;;;;5.30;2.58;;;;;;;;;;5046132;28;20029;-75
2021/08/31 08:03:09;;;;;;;5.57;2.47;;;;;;;;;;5040839;28;20040;-76
2021/08/31 08:05:34;;;;;;;3.45;2.22;;;;;;;;;;5054367;28;20029;-75
2021/08/31 08:08:00;;;;;;;4.70;2.95;;;;;;;;;;5035628;28;20449;-75
2021/08/31 08:10:25;;;;;;;7.88;3.15;;;;;;;;;;5054248;28;20453;-75
2021/08/31 08:12:50;;;;;;;5.60;2.53;;;;;;;;;;5054478;28;20033;-75
2021/08/31 08:15:16;;;;;;;8.57;3.00;;;;;;;;;;5054240;28;20029;-75
2021/08/31 08:17:41;;;;;;;5.43;3.00;;;;;;;;;;5053312;28;20373;-76
2021/08/31 08:20:08;;;;;;;6.72;2.83;;;;;;;;;;5054475;28;20033;-75
2021/08/31 08:22:34;;;;;;;6.30;3.00;;;;;;;;;;5054468;28;20021;-76
2021/08/31 08:24:59;;;;;;;5.40;3.30;;;;;;;;;;5053770;28;20531;-77
2021/08/31 08:27:25;;;;;;;5.38;2.92;;;;;;;;;;5049495;28;20536;-76
2021/08/31 08:29:50;;;;;;;4.88;2.70;;;;;;;;;;5045251;28;20033;-75
2021/08/31 08:32:15;;;;;;;5.13;2.92;;;;;;;;;;5048561;28;20041;-75
2021/08/31 08:34:41;;;;;;;6.13;2.97;;;;;;;;;;5048430;28;20037;-76
2021/08/31 08:37:07;;;;;;;8.05;3.08;;;;;;;;;;5049436;28;20083;-75
2021/08/31 08:39:33;;;;;;;5.20;2.88;;;;;;;;;;5047957;28;20047;-76
2021/08/31 08:41:58;;;;;;;4.50;2.85;;;;;;;;;;5050714;28;20044;-74
2021/08/31 08:44:27;;;;;;;7.03;3.55;;;;;;;;;;5050058;28;20032;-75
2021/08/31 08:46:53;;;;;;;5.53;3.13;;;;;;;;;;5050173;28;20071;-77
2021/08/31 08:49:18;;;;;;;9.23;3.58;;;;;;;;;;5049714;28;20052;-75
2021/08/31 08:51:43;;;;;;;6.32;3.40;;;;;;;;;;5050209;28;20088;-75
2021/08/31 08:54:08;;;;;;;5.55;3.10;;;;;;;;;;5049522;28;20047;-75
2021/08/31 08:56:34;;;;;;;7.93;4.45;;;;;;;;;;5050830;28;20040;-75
2021/08/31 08:58:59;;;;;;;7.18;3.92;;;;;;;;;;5050389;28;20032;-75
2021/08/31 09:01:39;;;;;;;8.02;3.22;;;;;;;;;;5050185;28;20158;-75
2021/08/31 09:04:04;;;;;;;6.43;3.72;;;;;;;;;;5030920;28;20466;-76
2021/08/31 09:06:30;;;;;;;9.20;3.80;;;;;;;;;;5030364;28;20030;-76
2021/08/31 09:08:55;;;;;;;6.53;3.50;;;;;;;;;;5030182;28;20033;-75
2021/08/31 09:11:26;;;;;;;8.10;3.33;;;;;;;;;;5030642;28;20107;-75
2021/08/31 09:13:52;;;;;;;7.22;4.03;;;;;;;;;;5030527;28;20021;-75
2021/08/31 09:16:21;;;;;;;8.70;4.43;;;;;;;;;;5030787;28;20048;-75
2021/08/31 09:18:50;;;;;;;11.77;3.60;;;;;;;;;;5030589;28;20108;-77
2021/08/31 09:21:20;;;;;;;5.47;3.60;;;;;;;;;;5031375;28;20108;-76
2021/08/31 09:23:48;;;;;;;6.40;4.05;;;;;;;;;;5031235;28;20053;-76
2021/08/31 09:26:18;;;;;;;8.50;3.90;;;;;;;;;;5031216;28;20169;-75
2021/08/31 09:28:44;;;;;;;6.47;3.63;;;;;;;;;;5030278;28;20029;-75
2021/08/31 09:31:10;;;;;;;6.65;3.38;;;;;;;;;;5030098;28;20457;-75
2021/08/31 09:33:40;;;;;;;6.70;3.70;;;;;;;;;;5030541;28;20029;-77
2021/08/31 09:36:09;;;;;;;6.55;3.20;;;;;;;;;;5030672;28;20044;-75
2021/08/31 09:38:46;;;;;;;5.18;2.72;;;;;;;;;;5030329;28;20079;-75
2021/08/31 09:41:27;;;;;;;7.35;3.20;;;;;;;;;;5049172;28;20029;-75
2021/08/31 09:43:52;;;;;;;5.22;3.50;;;;;;;;;;5049750;28;20100;-75
2021/08/31 09:46:17;;;;;;;7.05;3.05;;;;;;;;;;5045405;28;20116;-75
2021/08/31 09:48:43;;;;;;;4.93;2.83;;;;;;;;;;5047823;28;20108;-75
2021/08/31 09:51:11;;;;;;;5.50;3.20;;;;;;;;;;5049934;28;20024;-75
2021/08/31 09:53:36;;;;;;;5.13;2.60;;;;;;;;;;5048755;28;20087;-75
2021/08/31 09:56:02;;;;;;;3.42;2.53;;;;;;;;;;5050088;28;20428;-75
2021/08/31 09:58:28;;;;;;;5.05;2.55;;;;;;;;;;5049095;28;20025;-74
2021/08/31 10:00:54;;;;;;;5.65;2.53;;;;;;;;;;5049605;28;20028;-75
2021/08/31 10:03:20;;;;;;;4.20;2.58;;;;;;;;;;5049584;28;20457;-76
2021/08/31 10:05:47;;;;;;;4.43;2.13;;;;;;;;;;5049913;28;20079;-75
2021/08/31 10:08:13;;;;;;;8.48;3.03;;;;;;;;;;5049138;28;20025;-75
2021/08/31 10:10:39;;;;;;;5.75;2.22;;;;;;;;;;5050360;28;20037;-75
2021/08/31 10:13:12;;;;;;;3.17;1.73;;;;;;;;;;5049653;28;20028;-76
2021/08/31 10:15:40;;;;;;;5.85;2.08;;;;;;;;;;5049024;28;20462;-76
2021/08/31 10:18:07;;;;;;;3.10;1.95;;;;;;;;;;5048891;28;20033;-75
2021/08/31 10:20:34;;;;;;;4.32;2.35;;;;;;;;;;5050427;28;20013;-76
2021/08/31 10:23:01;;;;;;;3.47;1.90;;;;;;;;;;5052797;28;20052;-78
2021/08/31 10:25:26;;;;;;;4.97;2.22;;;;;;;;;;5052690;28;20033;-76
2021/08/31 10:27:55;;;;;;;3.85;1.73;;;;;;;;;;5052984;28;20104;-77
2021/08/31 10:30:21;;;;;;;5.82;2.33;;;;;;;;;;5052713;28;20078;-79
2021/08/31 10:32:50;;;;;;;3.88;1.80;;;;;;;;;;5053264;28;20136;-75
2021/08/31 10:35:39;;;;;;;3.05;1.90;;;;;;;;;;5052698;28;20029;-75
2021/08/31 10:38:09;;;;;;;4.03;2.30;;;;;;;;;;5053245;28;20036;-75
2021/08/31 10:40:35;;;;;;;3.47;1.90;;;;;;;;;;5052403;28;20556;-75
2021/08/31 10:43:04;;;;;;;3.22;2.17;;;;;;;;;;5053064;28;20114;-77
2021/08/31 10:45:31;;;;;;;4.78;1.90;;;;;;;;;;5051320;28;20083;-76
2021/08/31 10:47:58;;;;;;;3.70;2.28;;;;;;;;;;5052293;28;20068;-75
2021/08/31 10:50:30;;;;;;;4.93;2.00;;;;;;;;;;5051953;28;20428;-75
2021/08/31 10:53:04;;;;;;;3.28;2.20;;;;;;;;;;5049710;28;20021;-75
2021/08/31 10:55:29;;;;;;;4.13;2.25;;;;;;;;;;5052075;28;20103;-75
2021/08/31 10:57:58;;;;;;;8.38;2.13;;;;;;;;;;5045417;28;20115;-76
2021/08/31 11:00:23;;;;;;;7.07;2.05;;;;;;;;;;5052190;28;20040;-75
2021/08/31 11:02:49;;;;;;;4.38;1.98;;;;;;;;;;5052290;28;20118;-75
2021/08/31 11:05:27;;;;;;;3.80;1.88;;;;;;;;;;5051699;28;20048;-76
2021/08/31 11:07:59;;;;;;;3.10;2.08;;;;;;;;;;5052939;28;20048;-75
2021/08/31 11:10:29;;;;;;;5.13;2.28;;;;;;;;;;5052125;28;20028;-76
2021/08/31 11:12:54;;;;;;;4.97;2.60;;;;;;;;;;5052683;28;20033;-77
2021/08/31 11:15:20;;;;;;;5.55;2.70;;;;;;;;;;5051773;28;20036;-75
2021/08/31 11:17:47;;;;;;;5.00;2.88;;;;;;;;;;5046473;28;20446;-76
2021/08/31 11:20:14;;;;;;;4.50;2.17;;;;;;;;;;5051233;28;20524;-75
2021/08/31 11:22:39;;;;;;;4.60;1.95;;;;;;;;;;5050318;28;20280;-76
2021/08/31 11:25:05;;;;;;;4.72;2.22;;;;;;;;;;5051904;28;20025;-76
2021/08/31 11:27:47;;;;;;;6.03;2.22;;;;;;;;;;5050824;28;20041;-77
2021/08/31 11:30:12;;;;;;;5.90;2.83;;;;;;;;;;5050599;28;20527;-75
2021/08/31 11:32:37;;;;;;;4.05;2.35;;;;;;;;;;5051114;28;20040;-77
2021/08/31 11:35:03;;;;;;;5.35;2.40;;;;;;;;;;5047891;28;20127;-76
2021/08/31 11:37:29;;;;;;;5.38;2.30;;;;;;;;;;5048537;28;20457;-75
2021/08/31 11:39:58;;;;;;;4.60;2.40;;;;;;;;;;5049050;28;20033;-78
2021/08/31 11:42:23;;;;;;;3.75;2.00;;;;;;;;;;5049733;28;20020;-76
2021/08/31 11:44:58;;;;;;;5.50;2.38;;;;;;;;;;5049670;28;20024;-76
2021/08/31 11:47:23;;;;;;;6.53;2.13;;;;;;;;;;5049610;28;20507;-76
2021/08/31 11:49:48;;;;;;;5.72;2.20;;;;;;;;;;5049284;28;20056;-75
2021/08/31 11:52:19;;;;;;;6.03;2.40;;;;;;;;;;5051009;28;20115;-75
2021/08/31 11:54:45;;;;;;;4.78;2.08;;;;;;;;;;5049109;28;20079;-75
2021/08/31 11:57:11;;;;;;;3.65;2.30;;;;;;;;;;5049622;28;20127;-75
2021/08/31 11:59:44;;;;;;;6.47;2.40;;;;;;;;;;5050297;28;20528;-75
2021/08/31 12:02:12;;;;;;;5.00;2.85;;;;;;;;;;5050748;28;20036;-75
2021/08/31 12:04:37;;;;;;;5.35;2.60;;;;;;;;;;5050778;28;20091;-76
2021/08/31 12:07:03;;;;;;;3.78;2.17;;;;;;;;;;5051693;28;20465;-76
2021/08/31 12:09:29;;;;;;;4.13;2.08;;;;;;;;;;5049709;28;20067;-78
2021/08/31 12:11:54;;;;;;;6.72;2.35;;;;;;;;;;5049667;28;20017;-75
2021/08/31 12:14:20;;;;;;;11.32;3.50;;;;;;;;;;5050102;28;20444;-75
2021/08/31 12:16:46;;;;;;;5.93;2.70;;;;;;;;;;5050712;28;20040;-76
2021/08/31 12:19:15;;;;;;;3.83;2.00;;;;;;;;;;5051560;28;20027;-75
2021/08/31 12:21:40;;;;;;;5.75;2.50;;;;;;;;;;5049163;28;20377;-75
2021/08/31 12:24:11;;;;;;;5.22;2.38;;;;;;;;;;5048858;28;20062;-76
2021/08/31 12:26:36;;;;;;;4.30;2.33;;;;;;;;;;5049031;28;20312;-75
2021/08/31 12:29:11;;;;;;;10.88;2.75;;;;;;;;;;5050520;28;20454;-75
2021/08/31 12:31:37;;;;;;;4.27;2.07;;;;;;;;;;5040913;28;20283;-76
2021/08/31 12:34:03;;;;;;;4.97;2.45;;;;;;;;;;5048224;28;20520;-76
2021/08/31 12:36:30;;;;;;;4.00;2.13;;;;;;;;;;5048252;28;20036;-76
2021/08/31 12:38:58;;;;;;;7.00;2.35;;;;;;;;;;5047766;28;20032;-75
2021/08/31 12:41:26;;;;;;;4.75;2.08;;;;;;;;;;5049905;28;20029;-75
2021/08/31 12:43:52;;;;;;;4.22;1.92;;;;;;;;;;5049476;28;20458;-76
2021/08/31 12:46:19;;;;;;;3.67;1.83;;;;;;;;;;5048619;28;20474;-75
2021/08/31 12:48:46;;;;;;;4.07;2.45;;;;;;;;;;5049741;28;20479;-75
2021/08/31 12:51:11;;;;;;;5.97;2.28;;;;;;;;;;5048844;28;20017;-75
2021/08/31 12:53:38;;;;;;;3.35;2.03;;;;;;;;;;5049609;28;20087;-76
2021/08/31 12:56:04;;;;;;;3.70;2.17;;;;;;;;;;5046954;28;20481;-76
2021/08/31 12:58:30;;;;;;;4.47;2.15;;;;;;;;;;5051156;28;20621;-75
2021/08/31 13:01:09;;;;;;;3.88;2.08;;;;;;;;;;5049972;28;20080;-75
2021/08/31 13:03:35;;;;;;;4.20;2.33;;;;;;;;;;5043201;28;20409;-80
2021/08/31 13:06:01;;;;;;;3.45;2.20;;;;;;;;;;5049698;28;20025;-77
2021/08/31 13:08:27;;;;;;;7.40;3.05;;;;;;;;;;5048911;28;20032;-75
2021/08/31 13:10:52;;;;;;;4.47;2.40;;;;;;;;;;5049949;28;20012;-75
2021/08/31 13:13:26;;;;;;;4.93;2.50;;;;;;;;;;5049810;28;20025;-75
2021/08/31 13:15:52;;;;;;;4.65;2.10;;;;;;;;;;5049896;28;20033;-76
2021/08/31 13:18:17;;;;;;;4.95;2.17;;;;;;;;;;5050066;28;20392;-75
2021/08/31 13:20:42;;;;;;;5.22;2.90;;;;;;;;;;5050240;28;20033;-76
2021/08/31 13:23:07;;;;;;;3.97;2.47;;;;;;;;;;5049501;28;20020;-75
2021/08/31 13:25:33;;;;;;;6.32;3.15;;;;;;;;;;5049714;28;20032;-75
2021/08/31 13:27:58;;;;;;;3.00;2.10;;;;;;;;;;5049915;28;20025;-75
2021/08/31 13:30:23;;;;;;;3.88;2.50;;;;;;;;;;5050557;28;20399;-76
2021/08/31 13:32:48;;;;;;;4.63;2.60;;;;;;;;;;5049974;28;20051;-81
2021/08/31 13:35:14;;;;;;;3.42;2.30;;;;;;;;;;5050984;28;20485;-75
2021/08/31 13:37:39;;;;;;;4.93;2.33;;;;;;;;;;5050311;28;20100;-75
2021/08/31 13:40:04;;;;;;;7.22;2.78;;;;;;;;;;5050150;28;20033;-75
2021/08/31 13:42:30;;;;;;;5.60;2.72;;;;;;;;;;5049982;28;20068;-75
2021/08/31 13:44:55;;;;;;;4.72;2.35;;;;;;;;;;5050350;28;20025;-77
2021/08/31 13:47:20;;;;;;;3.95;2.78;;;;;;;;;;5050879;28;20028;-76
2021/08/31 13:49:46;;;;;;;6.78;2.45;;;;;;;;;;5050516;28;20033;-75
2021/08/31 13:52:11;;;;;;;3.88;2.45;;;;;;;;;;5049564;28;20021;-75
2021/08/31 13:54:36;;;;;;;4.32;2.58;;;;;;;;;;5047809;28;20106;-75
2021/08/31 13:57:01;;;;;;;5.82;2.83;;;;;;;;;;5050334;28;20492;-76
2021/08/31 13:59:27;;;;;;;6.30;3.00;;;;;;;;;;5050649;28;20017;-75
2021/08/31 14:01:52;;;;;;;5.45;2.40;;;;;;;;;;5048892;28;20784;-76
2021/08/31 14:04:17;;;;;;;3.35;2.40;;;;;;;;;;5049577;28;20033;-75
2021/08/31 14:06:43;;;;;;;3.90;2.20;;;;;;;;;;5049855;28;20025;-76
2021/08/31 14:09:08;;;;;;;5.85;2.40;;;;;;;;;;5049454;28;20047;-76
2021/08/31 14:11:33;;;;;;;4.47;2.40;;;;;;;;;;5050245;28;20028;-75
2021/08/31 14:13:58;;;;;;;5.60;2.28;;;;;;;;;;5050029;28;20025;-75
2021/08/31 14:16:24;;;;;;;7.55;2.00;;;;;;;;;;5049772;28;20044;-75
2021/08/31 14:18:51;;;;;;;3.38;2.53;;;;;;;;;;5049762;28;20065;-76
2021/08/31 14:21:16;;;;;;;5.53;2.28;;;;;;;;;;5049700;28;20400;-76
2021/08/31 14:23:41;;;;;;;5.65;2.88;;;;;;;;;;5049962;28;20029;-75
2021/08/31 14:26:07;;;;;;;3.63;2.03;;;;;;;;;;5049853;28;20036;-75
2021/08/31 14:28:32;;;;;;;5.93;1.90;;;;;;;;;;5049791;28;20381;-75
2021/08/31 14:30:58;;;;;;;6.60;1.83;;;;;;;;;;5049348;28;20508;-76
2021/08/31 14:33:23;;;;;;;5.45;1.90;;;;;;;;;;5031764;28;20040;-75
2021/08/31 14:35:48;;;;;;;4.28;2.40;;;;;;;;;;5049886;28;20033;-75